sensor_id;sensor_type;location;lat;lon;timestamp;temperature;humidity
35425;DHT22;21537;48.226;16.400;2022-10-31T00:01:29;11.90;99.90
35425;DHT22;21537;48.226;16.400;2022-10-31T00:03:55;12.00;99.90
35425;DHT22;21537;48.226;16.400;2022-10-31T00:06:22;12.00;99.90
35425;DHT22;21537;48.226;16.400;2022-10-31T00:08:56;11.90;99.90
35425;DHT22;21537;48.226;16.400;2022-10-31T00:11:23;12.00;99.90
35425;DHT22;21537;48.226;16.400;2022-10-31T00:13:49;12.00;99.90
35425;DHT22;21537;48.226;16.400;2022-10-31T00:16:16;12.00;99.90
35425;DHT22;21537;48.226;16.400;2022-10-31T00:18:42;12.00;99.90
35425;DHT22;21537;48.226;16.400;2022-10-31T00:21:08;12.00;99.90
35425;DHT22;21537;48.226;16.400;2022-10-31T00:23:34;12.00;99.90
35425;DHT22;21537;48.226;16.400;2022-10-31T00:26:03;12.10;99.90
35425;DHT22;21537;48.226;16.400;2022-10-31T00:28:29;12.10;99.90
35425;DHT22;21537;48.226;16.400;2022-10-31T00:31:03;12.10;99.90
35425;DHT22;21537;48.226;16.400;2022-10-31T00:33:29;12.00;99.90
35425;DHT22;21537;48.226;16.400;2022-10-31T00:35:55;12.10;99.90
35425;DHT22;21537;48.226;16.400;2022-10-31T00:38:22;12.10;99.90
35425;DHT22;21537;48.226;16.400;2022-10-31T00:40:47;12.10;99.90
35425;DHT22;21537;48.226;16.400;2022-10-31T00:43:13;12.10;99.90
35425;DHT22;21537;48.226;16.400;2022-10-31T00:45:40;12.10;99.90
35425;DHT22;21537;48.226;16.400;2022-10-31T00:48:06;12.10;99.90
35425;DHT22;21537;48.226;16.400;2022-10-31T00:50:32;12.00;99.90
35425;DHT22;21537;48.226;16.400;2022-10-31T00:52:59;12.10;99.90
35425;DHT22;21537;48.226;16.400;2022-10-31T00:55:24;12.10;99.90
35425;DHT22;21537;48.226;16.400;2022-10-31T00:57:51;12.10;99.90
35425;DHT22;21537;48.226;16.400;2022-10-31T01:00:17;12.10;99.90
35425;DHT22;21537;48.226;16.400;2022-10-31T01:02:43;12.00;99.90
35425;DHT22;21537;48.226;16.400;2022-10-31T01:05:09;12.00;99.90
35425;DHT22;21537;48.226;16.400;2022-10-31T01:07:38;12.00;99.90
35425;DHT22;21537;48.226;16.400;2022-10-31T01:10:08;12.00;99.90
35425;DHT22;21537;48.226;16.400;2022-10-31T01:12:43;12.00;99.90
35425;DHT22;21537;48.226;16.400;2022-10-31T01:15:11;12.00;99.90
35425;DHT22;21537;48.226;16.400;2022-10-31T01:17:37;12.00;99.90
35425;DHT22;21537;48.226;16.400;2022-10-31T01:20:04;11.90;99.90
35425;DHT22;21537;48.226;16.400;2022-10-31T01:22:31;11.90;99.90
35425;DHT22;21537;48.226;16.400;2022-10-31T01:24:59;11.90;99.90
35425;DHT22;21537;48.226;16.400;2022-10-31T01:27:25;12.00;99.90
35425;DHT22;21537;48.226;16.400;2022-10-31T01:29:51;12.00;99.90
35425;DHT22;21537;48.226;16.400;2022-10-31T01:32:17;12.00;99.90
35425;DHT22;21537;48.226;16.400;2022-10-31T01:34:44;12.00;99.90
35425;DHT22;21537;48.226;16.400;2022-10-31T01:37:12;12.00;99.90
35425;DHT22;21537;48.226;16.400;2022-10-31T01:39:38;12.20;99.90
35425;DHT22;21537;48.226;16.400;2022-10-31T01:42:04;12.20;99.90
35425;DHT22;21537;48.226;16.400;2022-10-31T01:47:07;12.20;99.90
35425;DHT22;21537;48.226;16.400;2022-10-31T01:49:40;12.30;99.90
35425;DHT22;21537;48.226;16.400;2022-10-31T01:52:32;12.30;99.90
35425;DHT22;21537;48.226;16.400;2022-10-31T01:55:03;12.30;99.90
35425;DHT22;21537;48.226;16.400;2022-10-31T01:57:32;12.20;99.90
35425;DHT22;21537;48.226;16.400;2022-10-31T02:00:03;12.10;99.90
35425;DHT22;21537;48.226;16.400;2022-10-31T02:02:39;12.10;99.90
35425;DHT22;21537;48.226;16.400;2022-10-31T02:05:08;12.00;99.90
35425;DHT22;21537;48.226;16.400;2022-10-31T02:07:43;12.10;99.90
35425;DHT22;21537;48.226;16.400;2022-10-31T02:10:11;12.10;99.90
35425;DHT22;21537;48.226;16.400;2022-10-31T02:12:38;12.10;99.90
35425;DHT22;21537;48.226;16.400;2022-10-31T02:15:05;12.20;99.90
35425;DHT22;21537;48.226;16.400;2022-10-31T02:17:32;12.20;99.90
35425;DHT22;21537;48.226;16.400;2022-10-31T02:20:18;12.20;99.90
35425;DHT22;21537;48.226;16.400;2022-10-31T02:25:46;12.20;99.90
35425;DHT22;21537;48.226;16.400;2022-10-31T02:28:34;12.30;99.90
35425;DHT22;21537;48.226;16.400;2022-10-31T02:31:23;12.30;99.90
35425;DHT22;21537;48.226;16.400;2022-10-31T02:33:57;12.30;99.90
35425;DHT22;21537;48.226;16.400;2022-10-31T02:39:44;12.30;99.90
35425;DHT22;21537;48.226;16.400;2022-10-31T02:44:56;12.30;99.90
35425;DHT22;21537;48.226;16.400;2022-10-31T02:47:27;12.30;99.90
35425;DHT22;21537;48.226;16.400;2022-10-31T02:50:11;12.30;99.90
35425;DHT22;21537;48.226;16.400;2022-10-31T02:52:39;12.30;99.90
35425;DHT22;21537;48.226;16.400;2022-10-31T02:58:18;12.30;99.90
35425;DHT22;21537;48.226;16.400;2022-10-31T03:04:25;12.30;99.90
35425;DHT22;21537;48.226;16.400;2022-10-31T03:06:39;12.30;99.90
35425;DHT22;21537;48.226;16.400;2022-10-31T03:09:37;12.30;99.90
35425;DHT22;21537;48.226;16.400;2022-10-31T03:12:37;12.30;99.90
35425;DHT22;21537;48.226;16.400;2022-10-31T03:18:37;12.30;99.90
35425;DHT22;21537;48.226;16.400;2022-10-31T03:21:06;12.40;99.90
35425;DHT22;21537;48.226;16.400;2022-10-31T03:23:36;12.40;99.90
35425;DHT22;21537;48.226;16.400;2022-10-31T03:26:05;12.40;99.90
35425;DHT22;21537;48.226;16.400;2022-10-31T03:28:38;12.30;99.90
35425;DHT22;21537;48.226;16.400;2022-10-31T03:31:07;12.30;99.90
35425;DHT22;21537;48.226;16.400;2022-10-31T03:33:40;12.30;99.90
35425;DHT22;21537;48.226;16.400;2022-10-31T03:36:08;12.30;99.90
35425;DHT22;21537;48.226;16.400;2022-10-31T03:38:37;12.30;99.90
35425;DHT22;21537;48.226;16.400;2022-10-31T03:41:09;12.30;99.90
35425;DHT22;21537;48.226;16.400;2022-10-31T03:43:40;12.40;99.90
35425;DHT22;21537;48.226;16.400;2022-10-31T03:46:08;12.40;99.90
35425;DHT22;21537;48.226;16.400;2022-10-31T03:48:34;12.40;99.90
35425;DHT22;21537;48.226;16.400;2022-10-31T03:56:29;12.40;99.90
35425;DHT22;21537;48.226;16.400;2022-10-31T03:59:09;12.40;99.90
35425;DHT22;21537;48.226;16.400;2022-10-31T04:01:46;12.40;99.90
35425;DHT22;21537;48.226;16.400;2022-10-31T04:04:13;12.40;99.90
35425;DHT22;21537;48.226;16.400;2022-10-31T04:06:42;12.40;99.90
35425;DHT22;21537;48.226;16.400;2022-10-31T04:09:10;12.50;99.90
35425;DHT22;21537;48.226;16.400;2022-10-31T04:11:40;12.50;99.90
35425;DHT22;21537;48.226;16.400;2022-10-31T04:14:30;12.50;99.90
35425;DHT22;21537;48.226;16.400;2022-10-31T04:16:57;12.50;99.90
35425;DHT22;21537;48.226;16.400;2022-10-31T04:19:32;12.50;99.90
35425;DHT22;21537;48.226;16.400;2022-10-31T04:21:58;12.50;99.90
35425;DHT22;21537;48.226;16.400;2022-10-31T04:24:24;12.50;99.90
35425;DHT22;21537;48.226;16.400;2022-10-31T04:26:50;12.50;99.90
35425;DHT22;21537;48.226;16.400;2022-10-31T04:29:18;12.50;99.90
35425;DHT22;21537;48.226;16.400;2022-10-31T04:31:44;12.50;99.90
35425;DHT22;21537;48.226;16.400;2022-10-31T04:34:10;12.50;99.90
35425;DHT22;21537;48.226;16.400;2022-10-31T04:36:35;12.50;99.90
35425;DHT22;21537;48.226;16.400;2022-10-31T04:39:01;12.50;99.90
35425;DHT22;21537;48.226;16.400;2022-10-31T04:41:38;12.40;99.90
35425;DHT22;21537;48.226;16.400;2022-10-31T04:44:12;12.40;99.90
35425;DHT22;21537;48.226;16.400;2022-10-31T04:46:38;12.40;99.90
35425;DHT22;21537;48.226;16.400;2022-10-31T04:49:04;12.40;99.90
35425;DHT22;21537;48.226;16.400;2022-10-31T04:51:30;12.40;99.90
35425;DHT22;21537;48.226;16.400;2022-10-31T04:53:56;12.40;99.90
35425;DHT22;21537;48.226;16.400;2022-10-31T04:56:47;12.30;99.90
35425;DHT22;21537;48.226;16.400;2022-10-31T04:59:19;12.40;99.90
35425;DHT22;21537;48.226;16.400;2022-10-31T05:01:49;12.40;99.90
35425;DHT22;21537;48.226;16.400;2022-10-31T05:04:20;12.30;99.90
35425;DHT22;21537;48.226;16.400;2022-10-31T05:06:46;12.30;99.90
35425;DHT22;21537;48.226;16.400;2022-10-31T05:09:13;12.30;99.90
35425;DHT22;21537;48.226;16.400;2022-10-31T05:11:39;12.30;99.90
35425;DHT22;21537;48.226;16.400;2022-10-31T05:14:20;12.40;99.90
35425;DHT22;21537;48.226;16.400;2022-10-31T05:17:11;12.40;99.90
35425;DHT22;21537;48.226;16.400;2022-10-31T05:19:55;12.40;99.90
35425;DHT22;21537;48.226;16.400;2022-10-31T05:22:52;12.30;99.90
35425;DHT22;21537;48.226;16.400;2022-10-31T05:25:20;12.30;99.90
35425;DHT22;21537;48.226;16.400;2022-10-31T05:27:49;12.30;99.90
35425;DHT22;21537;48.226;16.400;2022-10-31T05:30:18;12.30;99.90
35425;DHT22;21537;48.226;16.400;2022-10-31T05:32:48;12.30;99.90
35425;DHT22;21537;48.226;16.400;2022-10-31T05:35:32;12.30;99.90
35425;DHT22;21537;48.226;16.400;2022-10-31T05:38:17;12.20;99.90
35425;DHT22;21537;48.226;16.400;2022-10-31T05:40:43;12.20;99.90
35425;DHT22;21537;48.226;16.400;2022-10-31T05:43:09;12.20;99.90
35425;DHT22;21537;48.226;16.400;2022-10-31T05:45:35;12.10;99.90
35425;DHT22;21537;48.226;16.400;2022-10-31T05:58:14;12.00;99.90
35425;DHT22;21537;48.226;16.400;2022-10-31T06:01:04;12.00;99.90
35425;DHT22;21537;48.226;16.400;2022-10-31T06:03:38;12.00;99.90
35425;DHT22;21537;48.226;16.400;2022-10-31T06:06:10;12.00;99.90
35425;DHT22;21537;48.226;16.400;2022-10-31T06:08:42;12.10;99.90
35425;DHT22;21537;48.226;16.400;2022-10-31T06:11:17;12.10;99.90
35425;DHT22;21537;48.226;16.400;2022-10-31T06:14:01;12.00;99.90
35425;DHT22;21537;48.226;16.400;2022-10-31T06:16:44;12.10;99.90
35425;DHT22;21537;48.226;16.400;2022-10-31T06:19:29;12.00;99.90
35425;DHT22;21537;48.226;16.400;2022-10-31T06:21:55;12.00;99.90
35425;DHT22;21537;48.226;16.400;2022-10-31T06:24:21;12.00;99.90
35425;DHT22;21537;48.226;16.400;2022-10-31T06:27:00;12.00;99.90
35425;DHT22;21537;48.226;16.400;2022-10-31T06:29:26;12.00;99.90
35425;DHT22;21537;48.226;16.400;2022-10-31T06:32:01;12.00;99.90
35425;DHT22;21537;48.226;16.400;2022-10-31T06:34:29;12.00;99.90
35425;DHT22;21537;48.226;16.400;2022-10-31T06:36:55;12.00;99.90
35425;DHT22;21537;48.226;16.400;2022-10-31T06:39:24;12.00;99.90
35425;DHT22;21537;48.226;16.400;2022-10-31T06:41:50;12.00;99.90
35425;DHT22;21537;48.226;16.400;2022-10-31T06:44:19;12.00;99.90
35425;DHT22;21537;48.226;16.400;2022-10-31T06:46:54;12.00;99.90
35425;DHT22;21537;48.226;16.400;2022-10-31T06:49:53;12.00;99.90
35425;DHT22;21537;48.226;16.400;2022-10-31T06:52:24;12.10;99.90
35425;DHT22;21537;48.226;16.400;2022-10-31T06:54:50;12.10;99.90
35425;DHT22;21537;48.226;16.400;2022-10-31T06:57:17;12.20;99.90
35425;DHT22;21537;48.226;16.400;2022-10-31T06:59:43;12.20;99.90
35425;DHT22;21537;48.226;16.400;2022-10-31T07:02:10;12.20;99.90
35425;DHT22;21537;48.226;16.400;2022-10-31T07:04:38;12.20;99.90
35425;DHT22;21537;48.226;16.400;2022-10-31T07:07:04;12.20;99.90
35425;DHT22;21537;48.226;16.400;2022-10-31T07:09:30;12.30;99.90
35425;DHT22;21537;48.226;16.400;2022-10-31T07:12:00;12.30;99.90
35425;DHT22;21537;48.226;16.400;2022-10-31T07:14:28;12.30;99.90
35425;DHT22;21537;48.226;16.400;2022-10-31T07:16:54;12.40;99.90
35425;DHT22;21537;48.226;16.400;2022-10-31T07:19:25;12.40;99.90
35425;DHT22;21537;48.226;16.400;2022-10-31T07:21:52;12.50;99.90
35425;DHT22;21537;48.226;16.400;2022-10-31T07:24:18;12.60;99.90
35425;DHT22;21537;48.226;16.400;2022-10-31T07:27:03;12.60;99.90
35425;DHT22;21537;48.226;16.400;2022-10-31T07:29:29;12.60;99.90
35425;DHT22;21537;48.226;16.400;2022-10-31T07:31:56;12.50;99.90
35425;DHT22;21537;48.226;16.400;2022-10-31T07:34:26;12.50;99.90
35425;DHT22;21537;48.226;16.400;2022-10-31T07:37:30;12.40;99.90
35425;DHT22;21537;48.226;16.400;2022-10-31T07:40:02;12.50;99.90
35425;DHT22;21537;48.226;16.400;2022-10-31T07:42:29;12.40;99.90
35425;DHT22;21537;48.226;16.400;2022-10-31T07:44:58;12.40;99.90
35425;DHT22;21537;48.226;16.400;2022-10-31T07:47:51;12.40;99.90
35425;DHT22;21537;48.226;16.400;2022-10-31T07:50:47;12.50;99.90
35425;DHT22;21537;48.226;16.400;2022-10-31T07:56:37;12.50;99.90
35425;DHT22;21537;48.226;16.400;2022-10-31T08:03:09;12.70;99.90
35425;DHT22;21537;48.226;16.400;2022-10-31T08:06:04;12.70;99.90
35425;DHT22;21537;48.226;16.400;2022-10-31T08:09:02;12.80;99.90
35425;DHT22;21537;48.226;16.400;2022-10-31T08:11:47;12.90;99.90
35425;DHT22;21537;48.226;16.400;2022-10-31T08:14:33;12.90;99.90
35425;DHT22;21537;48.226;16.400;2022-10-31T08:17:03;13.00;99.90
35425;DHT22;21537;48.226;16.400;2022-10-31T08:20:03;13.00;99.90
35425;DHT22;21537;48.226;16.400;2022-10-31T08:22:35;13.00;99.90
35425;DHT22;21537;48.226;16.400;2022-10-31T08:28:47;13.00;99.90
35425;DHT22;21537;48.226;16.400;2022-10-31T08:31:32;13.00;99.90
35425;DHT22;21537;48.226;16.400;2022-10-31T08:34:24;13.00;99.90
35425;DHT22;21537;48.226;16.400;2022-10-31T08:37:27;13.00;99.90
35425;DHT22;21537;48.226;16.400;2022-10-31T08:40:33;13.00;99.90
35425;DHT22;21537;48.226;16.400;2022-10-31T08:43:14;13.00;99.90
35425;DHT22;21537;48.226;16.400;2022-10-31T08:46:00;13.00;99.90
35425;DHT22;21537;48.226;16.400;2022-10-31T08:48:28;12.90;99.90
35425;DHT22;21537;48.226;16.400;2022-10-31T08:50:57;12.90;99.90
35425;DHT22;21537;48.226;16.400;2022-10-31T08:53:28;12.90;99.90
35425;DHT22;21537;48.226;16.400;2022-10-31T08:56:12;13.00;99.90
35425;DHT22;21537;48.226;16.400;2022-10-31T08:58:38;13.00;99.90
35425;DHT22;21537;48.226;16.400;2022-10-31T09:01:04;13.00;99.90
35425;DHT22;21537;48.226;16.400;2022-10-31T09:03:38;13.00;99.90
35425;DHT22;21537;48.226;16.400;2022-10-31T09:06:15;13.00;99.90
35425;DHT22;21537;48.226;16.400;2022-10-31T09:08:54;13.00;99.90
35425;DHT22;21537;48.226;16.400;2022-10-31T09:11:27;13.00;99.90
35425;DHT22;21537;48.226;16.400;2022-10-31T09:14:14;13.00;99.90
35425;DHT22;21537;48.226;16.400;2022-10-31T09:17:19;13.00;99.90
35425;DHT22;21537;48.226;16.400;2022-10-31T09:20:21;13.00;99.90
35425;DHT22;21537;48.226;16.400;2022-10-31T09:22:47;13.10;99.90
35425;DHT22;21537;48.226;16.400;2022-10-31T09:25:13;13.00;99.90
35425;DHT22;21537;48.226;16.400;2022-10-31T09:27:43;13.10;99.90
35425;DHT22;21537;48.226;16.400;2022-10-31T09:30:09;13.20;99.90
35425;DHT22;21537;48.226;16.400;2022-10-31T09:32:36;13.30;99.90
35425;DHT22;21537;48.226;16.400;2022-10-31T09:35:04;13.30;99.90
35425;DHT22;21537;48.226;16.400;2022-10-31T09:37:31;13.40;99.90
35425;DHT22;21537;48.226;16.400;2022-10-31T09:39:57;13.40;99.90
35425;DHT22;21537;48.226;16.400;2022-10-31T09:45:23;13.50;99.90
35425;DHT22;21537;48.226;16.400;2022-10-31T09:58:13;13.40;99.90
35425;DHT22;21537;48.226;16.400;2022-10-31T10:00:40;13.40;99.90
35425;DHT22;21537;48.226;16.400;2022-10-31T10:08:46;13.50;99.90
35425;DHT22;21537;48.226;16.400;2022-10-31T10:15:04;13.40;99.90
35425;DHT22;21537;48.226;16.400;2022-10-31T10:24:00;13.30;99.90
35425;DHT22;21537;48.226;16.400;2022-10-31T10:26:29;13.20;99.90
35425;DHT22;21537;48.226;16.400;2022-10-31T10:29:00;13.10;99.90
35425;DHT22;21537;48.226;16.400;2022-10-31T10:31:32;13.10;99.90
35425;DHT22;21537;48.226;16.400;2022-10-31T10:34:44;13.20;99.90
35425;DHT22;21537;48.226;16.400;2022-10-31T10:37:32;13.10;99.90
35425;DHT22;21537;48.226;16.400;2022-10-31T10:40:17;13.10;99.90
35425;DHT22;21537;48.226;16.400;2022-10-31T10:43:38;13.20;99.90
35425;DHT22;21537;48.226;16.400;2022-10-31T10:49:07;13.10;99.90
35425;DHT22;21537;48.226;16.400;2022-10-31T10:57:19;13.20;99.90
35425;DHT22;21537;48.226;16.400;2022-10-31T10:59:47;13.30;99.90
35425;DHT22;21537;48.226;16.400;2022-10-31T11:02:23;13.30;99.90
35425;DHT22;21537;48.226;16.400;2022-10-31T11:04:54;13.30;99.90
35425;DHT22;21537;48.226;16.400;2022-10-31T11:07:21;13.30;99.90
35425;DHT22;21537;48.226;16.400;2022-10-31T11:09:47;13.30;99.90
35425;DHT22;21537;48.226;16.400;2022-10-31T11:12:24;13.30;99.90
35425;DHT22;21537;48.226;16.400;2022-10-31T11:15:02;13.20;99.90
35425;DHT22;21537;48.226;16.400;2022-10-31T11:17:38;13.20;99.90
35425;DHT22;21537;48.226;16.400;2022-10-31T11:22:44;13.20;99.90
35425;DHT22;21537;48.226;16.400;2022-10-31T11:28:31;13.20;99.90
35425;DHT22;21537;48.226;16.400;2022-10-31T11:31:13;13.20;99.90
35425;DHT22;21537;48.226;16.400;2022-10-31T11:33:57;13.20;99.90
35425;DHT22;21537;48.226;16.400;2022-10-31T11:36:29;13.20;99.90
35425;DHT22;21537;48.226;16.400;2022-10-31T11:38:55;13.20;99.90
35425;DHT22;21537;48.226;16.400;2022-10-31T11:41:31;13.30;99.90
35425;DHT22;21537;48.226;16.400;2022-10-31T11:44:01;13.20;99.90
35425;DHT22;21537;48.226;16.400;2022-10-31T11:46:34;13.20;99.90
35425;DHT22;21537;48.226;16.400;2022-10-31T11:49:00;13.20;99.90
35425;DHT22;21537;48.226;16.400;2022-10-31T11:51:31;13.20;99.90
35425;DHT22;21537;48.226;16.400;2022-10-31T11:53:59;13.20;99.90
35425;DHT22;21537;48.226;16.400;2022-10-31T11:56:25;13.20;99.90
35425;DHT22;21537;48.226;16.400;2022-10-31T11:59:01;13.30;99.90
35425;DHT22;21537;48.226;16.400;2022-10-31T12:01:29;13.40;99.90
35425;DHT22;21537;48.226;16.400;2022-10-31T12:06:31;13.50;99.90
35425;DHT22;21537;48.226;16.400;2022-10-31T12:08:57;13.50;99.90
35425;DHT22;21537;48.226;16.400;2022-10-31T12:14:29;13.50;99.90
35425;DHT22;21537;48.226;16.400;2022-10-31T12:20:12;13.50;99.90
35425;DHT22;21537;48.226;16.400;2022-10-31T12:36:35;13.90;99.90
35425;DHT22;21537;48.226;16.400;2022-10-31T12:48:05;13.50;99.90
35425;DHT22;21537;48.226;16.400;2022-10-31T12:56:34;13.40;99.90
35425;DHT22;21537;48.226;16.400;2022-10-31T12:59:21;13.30;99.90
35425;DHT22;21537;48.226;16.400;2022-10-31T13:07:08;13.20;99.90
35425;DHT22;21537;48.226;16.400;2022-10-31T13:12:26;13.10;99.90
35425;DHT22;21537;48.226;16.400;2022-10-31T13:14:56;13.10;99.90
35425;DHT22;21537;48.226;16.400;2022-10-31T13:17:48;13.10;99.90
35425;DHT22;21537;48.226;16.400;2022-10-31T13:20:28;13.10;99.90
35425;DHT22;21537;48.226;16.400;2022-10-31T13:23:16;13.10;99.90
35425;DHT22;21537;48.226;16.400;2022-10-31T13:25:50;13.10;99.90
35425;DHT22;21537;48.226;16.400;2022-10-31T13:28:40;13.10;99.90
35425;DHT22;21537;48.226;16.400;2022-10-31T13:31:09;13.10;99.90
35425;DHT22;21537;48.226;16.400;2022-10-31T13:33:42;13.10;99.90
35425;DHT22;21537;48.226;16.400;2022-10-31T13:36:16;13.10;99.90
35425;DHT22;21537;48.226;16.400;2022-10-31T13:46:38;13.00;99.90
35425;DHT22;21537;48.226;16.400;2022-10-31T13:49:21;13.00;99.90
35425;DHT22;21537;48.226;16.400;2022-10-31T13:51:49;13.00;99.90
35425;DHT22;21537;48.226;16.400;2022-10-31T13:54:23;13.00;99.90
35425;DHT22;21537;48.226;16.400;2022-10-31T13:56:52;13.00;99.90
35425;DHT22;21537;48.226;16.400;2022-10-31T13:59:22;13.00;99.90
35425;DHT22;21537;48.226;16.400;2022-10-31T14:02:18;13.00;99.90
35425;DHT22;21537;48.226;16.400;2022-10-31T14:04:55;12.90;99.90
35425;DHT22;21537;48.226;16.400;2022-10-31T14:07:22;12.90;99.90
35425;DHT22;21537;48.226;16.400;2022-10-31T14:09:52;12.90;99.90
35425;DHT22;21537;48.226;16.400;2022-10-31T14:12:23;12.90;99.90
35425;DHT22;21537;48.226;16.400;2022-10-31T14:14:54;12.90;99.90
35425;DHT22;21537;48.226;16.400;2022-10-31T14:17:26;12.90;99.90
35425;DHT22;21537;48.226;16.400;2022-10-31T14:20:00;12.80;99.90
35425;DHT22;21537;48.226;16.400;2022-10-31T14:22:31;12.80;99.90
35425;DHT22;21537;48.226;16.400;2022-10-31T14:24:57;12.80;99.90
35425;DHT22;21537;48.226;16.400;2022-10-31T14:29:51;12.80;99.90
35425;DHT22;21537;48.226;16.400;2022-10-31T14:32:23;12.80;99.90
35425;DHT22;21537;48.226;16.400;2022-10-31T14:51:16;12.70;99.90
35425;DHT22;21537;48.226;16.400;2022-10-31T14:53:52;12.70;99.90
35425;DHT22;21537;48.226;16.400;2022-10-31T14:56:30;12.70;99.90
35425;DHT22;21537;48.226;16.400;2022-10-31T14:59:08;12.70;99.90
35425;DHT22;21537;48.226;16.400;2022-10-31T15:01:36;12.60;99.90
35425;DHT22;21537;48.226;16.400;2022-10-31T15:04:29;12.60;99.90
35425;DHT22;21537;48.226;16.400;2022-10-31T15:07:17;12.60;99.90
35425;DHT22;21537;48.226;16.400;2022-10-31T15:09:44;12.60;99.90
35425;DHT22;21537;48.226;16.400;2022-10-31T15:14:54;12.60;99.90
35425;DHT22;21537;48.226;16.400;2022-10-31T15:17:20;12.60;99.90
35425;DHT22;21537;48.226;16.400;2022-10-31T15:19:47;12.60;99.90
35425;DHT22;21537;48.226;16.400;2022-10-31T15:22:16;12.60;99.90
35425;DHT22;21537;48.226;16.400;2022-10-31T15:24:43;12.50;99.90
35425;DHT22;21537;48.226;16.400;2022-10-31T15:27:14;12.50;99.90
35425;DHT22;21537;48.226;16.400;2022-10-31T15:29:52;12.50;99.90
35425;DHT22;21537;48.226;16.400;2022-10-31T15:32:28;12.50;99.90
35425;DHT22;21537;48.226;16.400;2022-10-31T15:34:56;12.40;99.90
35425;DHT22;21537;48.226;16.400;2022-10-31T15:37:24;12.40;99.90
35425;DHT22;21537;48.226;16.400;2022-10-31T15:39:51;12.40;99.90
35425;DHT22;21537;48.226;16.400;2022-10-31T15:42:34;12.40;99.90
35425;DHT22;21537;48.226;16.400;2022-10-31T15:45:22;12.30;99.90
35425;DHT22;21537;48.226;16.400;2022-10-31T15:48:25;12.30;99.90
35425;DHT22;21537;48.226;16.400;2022-10-31T15:50:55;12.40;99.90
35425;DHT22;21537;48.226;16.400;2022-10-31T15:56:03;12.30;99.90
35425;DHT22;21537;48.226;16.400;2022-10-31T15:58:30;12.40;99.90
35425;DHT22;21537;48.226;16.400;2022-10-31T16:01:04;12.40;99.90
35425;DHT22;21537;48.226;16.400;2022-10-31T16:03:32;12.40;99.90
35425;DHT22;21537;48.226;16.400;2022-10-31T16:06:04;12.40;99.90
35425;DHT22;21537;48.226;16.400;2022-10-31T16:13:54;12.30;99.90
35425;DHT22;21537;48.226;16.400;2022-10-31T16:16:21;12.30;99.90
35425;DHT22;21537;48.226;16.400;2022-10-31T16:18:48;12.30;99.90
35425;DHT22;21537;48.226;16.400;2022-10-31T16:21:15;12.30;99.90
35425;DHT22;21537;48.226;16.400;2022-10-31T16:23:50;12.30;99.90
35425;DHT22;21537;48.226;16.400;2022-10-31T16:26:18;12.30;99.90
35425;DHT22;21537;48.226;16.400;2022-10-31T16:28:52;12.30;99.90
35425;DHT22;21537;48.226;16.400;2022-10-31T16:31:49;12.20;99.90
35425;DHT22;21537;48.226;16.400;2022-10-31T16:34:20;12.20;99.90
35425;DHT22;21537;48.226;16.400;2022-10-31T16:36:46;12.20;99.90
35425;DHT22;21537;48.226;16.400;2022-10-31T16:39:12;12.20;99.90
35425;DHT22;21537;48.226;16.400;2022-10-31T16:41:41;12.20;99.90
35425;DHT22;21537;48.226;16.400;2022-10-31T16:44:19;12.10;99.90
35425;DHT22;21537;48.226;16.400;2022-10-31T16:47:14;12.10;99.90
35425;DHT22;21537;48.226;16.400;2022-10-31T16:49:46;12.00;99.90
35425;DHT22;21537;48.226;16.400;2022-10-31T16:52:12;12.00;99.90
35425;DHT22;21537;48.226;16.400;2022-10-31T16:54:38;11.90;99.90
35425;DHT22;21537;48.226;16.400;2022-10-31T16:57:05;11.90;99.90
35425;DHT22;21537;48.226;16.400;2022-10-31T16:59:32;11.90;99.90
35425;DHT22;21537;48.226;16.400;2022-10-31T17:02:01;11.90;99.90
35425;DHT22;21537;48.226;16.400;2022-10-31T17:04:28;11.90;99.90
35425;DHT22;21537;48.226;16.400;2022-10-31T17:06:54;11.90;99.90
35425;DHT22;21537;48.226;16.400;2022-10-31T17:09:21;11.80;99.90
35425;DHT22;21537;48.226;16.400;2022-10-31T17:11:49;11.90;99.90
35425;DHT22;21537;48.226;16.400;2022-10-31T17:14:17;11.80;99.90
35425;DHT22;21537;48.226;16.400;2022-10-31T17:16:44;11.80;99.90
35425;DHT22;21537;48.226;16.400;2022-10-31T17:19:10;11.80;99.90
35425;DHT22;21537;48.226;16.400;2022-10-31T17:21:37;11.80;99.90
35425;DHT22;21537;48.226;16.400;2022-10-31T17:24:04;11.80;99.90
35425;DHT22;21537;48.226;16.400;2022-10-31T17:26:30;11.70;99.90
35425;DHT22;21537;48.226;16.400;2022-10-31T17:28:56;11.70;99.90
35425;DHT22;21537;48.226;16.400;2022-10-31T17:31:29;11.70;99.90
35425;DHT22;21537;48.226;16.400;2022-10-31T17:33:56;11.70;99.90
35425;DHT22;21537;48.226;16.400;2022-10-31T17:36:22;11.70;99.90
35425;DHT22;21537;48.226;16.400;2022-10-31T17:38:48;11.70;99.90
35425;DHT22;21537;48.226;16.400;2022-10-31T17:41:19;11.70;99.90
35425;DHT22;21537;48.226;16.400;2022-10-31T17:43:45;11.60;99.90
35425;DHT22;21537;48.226;16.400;2022-10-31T17:46:16;11.60;99.90
35425;DHT22;21537;48.226;16.400;2022-10-31T17:48:42;11.60;99.90
35425;DHT22;21537;48.226;16.400;2022-10-31T17:53:49;11.60;99.90
35425;DHT22;21537;48.226;16.400;2022-10-31T17:56:28;11.60;99.90
35425;DHT22;21537;48.226;16.400;2022-10-31T17:59:01;11.60;99.90
35425;DHT22;21537;48.226;16.400;2022-10-31T18:01:56;11.60;99.90
35425;DHT22;21537;48.226;16.400;2022-10-31T18:04:22;11.60;99.90
35425;DHT22;21537;48.226;16.400;2022-10-31T18:06:49;11.50;99.90
35425;DHT22;21537;48.226;16.400;2022-10-31T18:09:27;11.60;99.90
35425;DHT22;21537;48.226;16.400;2022-10-31T18:11:53;11.50;99.90
35425;DHT22;21537;48.226;16.400;2022-10-31T18:14:19;11.50;99.90
35425;DHT22;21537;48.226;16.400;2022-10-31T18:16:47;11.50;99.90
35425;DHT22;21537;48.226;16.400;2022-10-31T18:19:14;11.60;99.90
35425;DHT22;21537;48.226;16.400;2022-10-31T18:21:46;11.50;99.90
35425;DHT22;21537;48.226;16.400;2022-10-31T18:24:15;11.50;99.90
35425;DHT22;21537;48.226;16.400;2022-10-31T18:26:41;11.50;99.90
35425;DHT22;21537;48.226;16.400;2022-10-31T18:29:09;11.50;99.90
35425;DHT22;21537;48.226;16.400;2022-10-31T18:31:39;11.40;99.90
35425;DHT22;21537;48.226;16.400;2022-10-31T18:34:05;11.40;99.90
35425;DHT22;21537;48.226;16.400;2022-10-31T18:36:43;11.40;99.90
35425;DHT22;21537;48.226;16.400;2022-10-31T18:39:17;11.40;99.90
35425;DHT22;21537;48.226;16.400;2022-10-31T18:41:54;11.40;99.90
35425;DHT22;21537;48.226;16.400;2022-10-31T18:44:25;11.50;99.90
35425;DHT22;21537;48.226;16.400;2022-10-31T18:47:00;11.50;99.90